sensor_id;sensor_type;location;lat;lon;timestamp;P1;durP1;ratioP1;P2;durP2;ratioP2
19004;SDS011;9635;52.078;8.648;2022-12-18T00:00:00;38.20;;;17.60;;
19004;SDS011;9635;52.078;8.648;2022-12-18T00:05:14;37.53;;;15.57;;
19004;SDS011;9635;52.078;8.648;2022-12-18T00:10:17;33.20;;;13.90;;
19004;SDS011;9635;52.078;8.648;2022-12-18T00:15:23;31.65;;;14.68;;
19004;SDS011;9635;52.078;8.648;2022-12-18T00:20:26;33.42;;;13.50;;
19004;SDS011;9635;52.078;8.648;2022-12-18T00:25:29;29.80;;;13.70;;
19004;SDS011;9635;52.078;8.648;2022-12-18T00:30:36;32.50;;;14.43;;
19004;SDS011;9635;52.078;8.648;2022-12-18T00:35:39;32.90;;;14.15;;
19004;SDS011;9635;52.078;8.648;2022-12-18T00:40:44;30.67;;;13.23;;
19004;SDS011;9635;52.078;8.648;2022-12-18T00:45:48;31.92;;;13.00;;
19004;SDS011;9635;52.078;8.648;2022-12-18T00:50:51;29.80;;;12.07;;
19004;SDS011;9635;52.078;8.648;2022-12-18T00:55:54;21.38;;;11.43;;
19004;SDS011;9635;52.078;8.648;2022-12-18T01:00:58;30.65;;;13.02;;
19004;SDS011;9635;52.078;8.648;2022-12-18T01:06:05;30.73;;;12.05;;
19004;SDS011;9635;52.078;8.648;2022-12-18T01:11:09;25.42;;;12.18;;
19004;SDS011;9635;52.078;8.648;2022-12-18T01:16:16;31.92;;;12.82;;
19004;SDS011;9635;52.078;8.648;2022-12-18T01:21:20;30.55;;;14.05;;
19004;SDS011;9635;52.078;8.648;2022-12-18T01:26:25;27.23;;;12.90;;
19004;SDS011;9635;52.078;8.648;2022-12-18T01:31:32;25.90;;;11.65;;
19004;SDS011;9635;52.078;8.648;2022-12-18T01:36:37;31.77;;;12.38;;
19004;SDS011;9635;52.078;8.648;2022-12-18T01:41:41;35.70;;;12.07;;
19004;SDS011;9635;52.078;8.648;2022-12-18T01:47:03;28.58;;;12.63;;
19004;SDS011;9635;52.078;8.648;2022-12-18T01:52:07;28.92;;;12.50;;
19004;SDS011;9635;52.078;8.648;2022-12-18T01:57:10;27.63;;;12.77;;
19004;SDS011;9635;52.078;8.648;2022-12-18T02:02:15;30.83;;;13.40;;
19004;SDS011;9635;52.078;8.648;2022-12-18T02:07:20;29.45;;;12.82;;
19004;SDS011;9635;52.078;8.648;2022-12-18T02:12:37;29.60;;;14.00;;
19004;SDS011;9635;52.078;8.648;2022-12-18T02:17:51;36.22;;;15.27;;
19004;SDS011;9635;52.078;8.648;2022-12-18T02:23:01;29.23;;;12.70;;
19004;SDS011;9635;52.078;8.648;2022-12-18T02:28:14;31.90;;;12.27;;
19004;SDS011;9635;52.078;8.648;2022-12-18T02:33:20;32.20;;;13.57;;
19004;SDS011;9635;52.078;8.648;2022-12-18T02:38:30;28.80;;;13.38;;
19004;SDS011;9635;52.078;8.648;2022-12-18T02:43:46;28.38;;;12.10;;
19004;SDS011;9635;52.078;8.648;2022-12-18T02:48:53;32.67;;;12.98;;
19004;SDS011;9635;52.078;8.648;2022-12-18T02:54:05;31.87;;;12.30;;
19004;SDS011;9635;52.078;8.648;2022-12-18T02:59:17;34.05;;;13.68;;
19004;SDS011;9635;52.078;8.648;2022-12-18T03:04:29;35.30;;;13.07;;
19004;SDS011;9635;52.078;8.648;2022-12-18T03:09:43;34.58;;;12.88;;
19004;SDS011;9635;52.078;8.648;2022-12-18T03:14:54;33.70;;;13.25;;
19004;SDS011;9635;52.078;8.648;2022-12-18T03:20:02;31.80;;;13.50;;
19004;SDS011;9635;52.078;8.648;2022-12-18T03:25:11;27.88;;;12.65;;
19004;SDS011;9635;52.078;8.648;2022-12-18T03:30:18;29.73;;;12.77;;
19004;SDS011;9635;52.078;8.648;2022-12-18T03:35:22;34.63;;;12.70;;
19004;SDS011;9635;52.078;8.648;2022-12-18T03:40:35;29.58;;;13.00;;
19004;SDS011;9635;52.078;8.648;2022-12-18T03:45:52;32.38;;;14.00;;
19004;SDS011;9635;52.078;8.648;2022-12-18T03:51:01;32.15;;;12.43;;
19004;SDS011;9635;52.078;8.648;2022-12-18T03:56:10;32.30;;;13.85;;
19004;SDS011;9635;52.078;8.648;2022-12-18T04:01:20;30.35;;;11.85;;
19004;SDS011;9635;52.078;8.648;2022-12-18T04:06:26;29.48;;;13.23;;
19004;SDS011;9635;52.078;8.648;2022-12-18T04:11:31;30.90;;;12.68;;
19004;SDS011;9635;52.078;8.648;2022-12-18T04:16:38;28.23;;;12.18;;
19004;SDS011;9635;52.078;8.648;2022-12-18T04:21:48;29.08;;;12.77;;
19004;SDS011;9635;52.078;8.648;2022-12-18T04:26:51;28.67;;;13.68;;
19004;SDS011;9635;52.078;8.648;2022-12-18T04:32:02;30.48;;;13.35;;
19004;SDS011;9635;52.078;8.648;2022-12-18T04:37:06;32.80;;;13.23;;
19004;SDS011;9635;52.078;8.648;2022-12-18T04:42:10;31.23;;;12.40;;
19004;SDS011;9635;52.078;8.648;2022-12-18T04:47:14;31.10;;;13.40;;
19004;SDS011;9635;52.078;8.648;2022-12-18T04:52:17;25.48;;;11.45;;
19004;SDS011;9635;52.078;8.648;2022-12-18T04:57:19;30.25;;;12.80;;
19004;SDS011;9635;52.078;8.648;2022-12-18T05:02:24;29.17;;;12.32;;
19004;SDS011;9635;52.078;8.648;2022-12-18T05:07:27;28.88;;;12.98;;
19004;SDS011;9635;52.078;8.648;2022-12-18T05:12:30;26.98;;;11.43;;
19004;SDS011;9635;52.078;8.648;2022-12-18T05:17:35;29.67;;;12.52;;
19004;SDS011;9635;52.078;8.648;2022-12-18T05:22:38;31.25;;;13.02;;
19004;SDS011;9635;52.078;8.648;2022-12-18T05:27:41;31.23;;;13.68;;
19004;SDS011;9635;52.078;8.648;2022-12-18T05:32:45;30.35;;;13.45;;
19004;SDS011;9635;52.078;8.648;2022-12-18T05:37:48;29.25;;;12.25;;
19004;SDS011;9635;52.078;8.648;2022-12-18T05:42:51;30.27;;;12.35;;
19004;SDS011;9635;52.078;8.648;2022-12-18T05:47:55;33.72;;;14.30;;
19004;SDS011;9635;52.078;8.648;2022-12-18T05:52:58;37.63;;;14.07;;
19004;SDS011;9635;52.078;8.648;2022-12-18T05:58:01;30.23;;;12.80;;
19004;SDS011;9635;52.078;8.648;2022-12-18T06:03:05;25.60;;;12.05;;
19004;SDS011;9635;52.078;8.648;2022-12-18T06:08:09;31.45;;;14.73;;
19004;SDS011;9635;52.078;8.648;2022-12-18T06:13:13;32.15;;;12.77;;
19004;SDS011;9635;52.078;8.648;2022-12-18T06:18:17;32.92;;;13.00;;
19004;SDS011;9635;52.078;8.648;2022-12-18T06:23:19;31.52;;;12.77;;
19004;SDS011;9635;52.078;8.648;2022-12-18T06:28:22;27.33;;;10.77;;
19004;SDS011;9635;52.078;8.648;2022-12-18T06:33:27;34.25;;;13.15;;
19004;SDS011;9635;52.078;8.648;2022-12-18T06:38:31;32.80;;;13.05;;
19004;SDS011;9635;52.078;8.648;2022-12-18T06:43:34;33.53;;;14.20;;
19004;SDS011;9635;52.078;8.648;2022-12-18T06:48:39;33.47;;;12.60;;
19004;SDS011;9635;52.078;8.648;2022-12-18T06:53:42;27.75;;;12.50;;
19004;SDS011;9635;52.078;8.648;2022-12-18T06:58:44;28.10;;;12.50;;
19004;SDS011;9635;52.078;8.648;2022-12-18T07:03:52;31.27;;;13.68;;
19004;SDS011;9635;52.078;8.648;2022-12-18T07:08:56;28.60;;;13.20;;
19004;SDS011;9635;52.078;8.648;2022-12-18T07:13:59;33.15;;;12.52;;
19004;SDS011;9635;52.078;8.648;2022-12-18T07:19:03;29.80;;;13.40;;
19004;SDS011;9635;52.078;8.648;2022-12-18T07:24:06;30.48;;;14.13;;
19004;SDS011;9635;52.078;8.648;2022-12-18T07:29:09;36.72;;;15.10;;
19004;SDS011;9635;52.078;8.648;2022-12-18T07:34:14;33.72;;;15.85;;
19004;SDS011;9635;52.078;8.648;2022-12-18T07:39:17;28.00;;;12.88;;
19004;SDS011;9635;52.078;8.648;2022-12-18T07:44:20;77.50;;;30.63;;
19004;SDS011;9635;52.078;8.648;2022-12-18T07:49:24;22.67;;;15.52;;
19004;SDS011;9635;52.078;8.648;2022-12-18T07:54:27;34.00;;;17.65;;
19004;SDS011;9635;52.078;8.648;2022-12-18T07:59:30;39.15;;;19.55;;
19004;SDS011;9635;52.078;8.648;2022-12-18T08:04:34;46.13;;;24.25;;
19004;SDS011;9635;52.078;8.648;2022-12-18T08:09:37;50.08;;;26.15;;
19004;SDS011;9635;52.078;8.648;2022-12-18T08:14:40;45.65;;;22.35;;
19004;SDS011;9635;52.078;8.648;2022-12-18T08:19:44;35.20;;;17.10;;
19004;SDS011;9635;52.078;8.648;2022-12-18T08:24:47;29.08;;;15.07;;
19004;SDS011;9635;52.078;8.648;2022-12-18T08:29:50;30.92;;;13.73;;
19004;SDS011;9635;52.078;8.648;2022-12-18T08:34:54;28.70;;;13.35;;
19004;SDS011;9635;52.078;8.648;2022-12-18T08:39:57;29.48;;;12.60;;
19004;SDS011;9635;52.078;8.648;2022-12-18T08:45:00;27.33;;;12.95;;
19004;SDS011;9635;52.078;8.648;2022-12-18T08:50:05;26.40;;;13.40;;
19004;SDS011;9635;52.078;8.648;2022-12-18T08:55:09;26.88;;;12.57;;
19004;SDS011;9635;52.078;8.648;2022-12-18T09:00:12;24.27;;;12.93;;
19004;SDS011;9635;52.078;8.648;2022-12-18T09:05:18;37.80;;;16.23;;
19004;SDS011;9635;52.078;8.648;2022-12-18T09:10:21;36.05;;;16.23;;
19004;SDS011;9635;52.078;8.648;2022-12-18T09:15:24;28.48;;;13.88;;
19004;SDS011;9635;52.078;8.648;2022-12-18T09:20:28;27.10;;;11.93;;
19004;SDS011;9635;52.078;8.648;2022-12-18T09:25:31;25.42;;;12.10;;
19004;SDS011;9635;52.078;8.648;2022-12-18T09:30:37;25.80;;;12.18;;
19004;SDS011;9635;52.078;8.648;2022-12-18T09:35:42;20.30;;;10.63;;
19004;SDS011;9635;52.078;8.648;2022-12-18T09:40:46;26.48;;;12.35;;
19004;SDS011;9635;52.078;8.648;2022-12-18T09:45:51;26.10;;;11.70;;
19004;SDS011;9635;52.078;8.648;2022-12-18T09:50:59;28.40;;;13.65;;
19004;SDS011;9635;52.078;8.648;2022-12-18T09:56:06;23.08;;;11.73;;
19004;SDS011;9635;52.078;8.648;2022-12-18T10:01:15;21.70;;;12.10;;
19004;SDS011;9635;52.078;8.648;2022-12-18T10:06:28;22.70;;;11.18;;
19004;SDS011;9635;52.078;8.648;2022-12-18T10:11:41;16.80;;;8.95;;
19004;SDS011;9635;52.078;8.648;2022-12-18T10:16:53;18.48;;;9.10;;
19004;SDS011;9635;52.078;8.648;2022-12-18T10:22:04;17.38;;;9.02;;
19004;SDS011;9635;52.078;8.648;2022-12-18T10:27:21;16.08;;;8.35;;
19004;SDS011;9635;52.078;8.648;2022-12-18T10:32:29;16.13;;;8.45;;
19004;SDS011;9635;52.078;8.648;2022-12-18T10:37:33;19.17;;;9.00;;
19004;SDS011;9635;52.078;8.648;2022-12-18T10:42:37;14.60;;;7.03;;
19004;SDS011;9635;52.078;8.648;2022-12-18T10:47:42;12.88;;;7.13;;
19004;SDS011;9635;52.078;8.648;2022-12-18T10:52:53;13.73;;;7.18;;
19004;SDS011;9635;52.078;8.648;2022-12-18T10:58:02;14.13;;;7.23;;
19004;SDS011;9635;52.078;8.648;2022-12-18T11:03:29;14.32;;;7.40;;
19004;SDS011;9635;52.078;8.648;2022-12-18T11:08:36;11.75;;;6.95;;
19004;SDS011;9635;52.078;8.648;2022-12-18T11:13:39;9.70;;;6.05;;
19004;SDS011;9635;52.078;8.648;2022-12-18T11:18:42;13.07;;;7.47;;
19004;SDS011;9635;52.078;8.648;2022-12-18T11:23:48;14.75;;;7.10;;
19004;SDS011;9635;52.078;8.648;2022-12-18T11:29:07;15.07;;;7.43;;
19004;SDS011;9635;52.078;8.648;2022-12-18T11:34:12;16.33;;;6.93;;
19004;SDS011;9635;52.078;8.648;2022-12-18T11:39:34;18.35;;;7.63;;
19004;SDS011;9635;52.078;8.648;2022-12-18T11:44:42;13.82;;;7.22;;
19004;SDS011;9635;52.078;8.648;2022-12-18T11:49:49;14.70;;;7.63;;
19004;SDS011;9635;52.078;8.648;2022-12-18T11:54:55;16.27;;;7.00;;
19004;SDS011;9635;52.078;8.648;2022-12-18T12:00:03;15.93;;;7.20;;
19004;SDS011;9635;52.078;8.648;2022-12-18T12:05:19;20.17;;;8.83;;
19004;SDS011;9635;52.078;8.648;2022-12-18T12:10:36;14.35;;;8.40;;
19004;SDS011;9635;52.078;8.648;2022-12-18T12:15:47;16.27;;;8.80;;
19004;SDS011;9635;52.078;8.648;2022-12-18T12:21:02;15.27;;;7.53;;
19004;SDS011;9635;52.078;8.648;2022-12-18T12:26:12;17.90;;;8.35;;
19004;SDS011;9635;52.078;8.648;2022-12-18T12:31:27;13.27;;;7.13;;
19004;SDS011;9635;52.078;8.648;2022-12-18T12:36:42;16.65;;;7.93;;
19004;SDS011;9635;52.078;8.648;2022-12-18T12:41:56;16.38;;;7.82;;
19004;SDS011;9635;52.078;8.648;2022-12-18T12:47:18;12.90;;;7.75;;
19004;SDS011;9635;52.078;8.648;2022-12-18T12:52:28;13.57;;;7.93;;
19004;SDS011;9635;52.078;8.648;2022-12-18T12:57:37;16.15;;;7.85;;
19004;SDS011;9635;52.078;8.648;2022-12-18T13:02:44;17.33;;;7.75;;
19004;SDS011;9635;52.078;8.648;2022-12-18T13:07:54;15.10;;;7.93;;
19004;SDS011;9635;52.078;8.648;2022-12-18T13:13:08;16.23;;;7.82;;
19004;SDS011;9635;52.078;8.648;2022-12-18T13:18:19;14.07;;;7.15;;
19004;SDS011;9635;52.078;8.648;2022-12-18T13:23:33;19.38;;;9.52;;
19004;SDS011;9635;52.078;8.648;2022-12-18T13:28:53;12.05;;;7.18;;
19004;SDS011;9635;52.078;8.648;2022-12-18T13:34:08;14.02;;;6.97;;
19004;SDS011;9635;52.078;8.648;2022-12-18T13:39:32;17.40;;;7.13;;
19004;SDS011;9635;52.078;8.648;2022-12-18T13:44:39;14.80;;;8.55;;
19004;SDS011;9635;52.078;8.648;2022-12-18T13:49:43;14.57;;;6.88;;
19004;SDS011;9635;52.078;8.648;2022-12-18T13:54:50;19.55;;;9.70;;
19004;SDS011;9635;52.078;8.648;2022-12-18T13:59:58;16.55;;;7.40;;
19004;SDS011;9635;52.078;8.648;2022-12-18T14:05:21;15.45;;;7.40;;
19004;SDS011;9635;52.078;8.648;2022-12-18T14:10:24;18.15;;;7.97;;
19004;SDS011;9635;52.078;8.648;2022-12-18T14:15:49;14.10;;;7.57;;
19004;SDS011;9635;52.078;8.648;2022-12-18T14:20:56;14.63;;;7.38;;
19004;SDS011;9635;52.078;8.648;2022-12-18T14:26:01;17.38;;;9.80;;
19004;SDS011;9635;52.078;8.648;2022-12-18T14:31:16;11.20;;;5.95;;
19004;SDS011;9635;52.078;8.648;2022-12-18T14:36:21;13.90;;;8.20;;
19004;SDS011;9635;52.078;8.648;2022-12-18T14:41:26;11.27;;;6.05;;
19004;SDS011;9635;52.078;8.648;2022-12-18T14:46:32;13.57;;;6.00;;
19004;SDS011;9635;52.078;8.648;2022-12-18T14:51:38;11.20;;;6.03;;
19004;SDS011;9635;52.078;8.648;2022-12-18T14:56:42;14.88;;;6.45;;
19004;SDS011;9635;52.078;8.648;2022-12-18T15:01:49;15.20;;;8.63;;
19004;SDS011;9635;52.078;8.648;2022-12-18T15:07:04;9.25;;;6.35;;
19004;SDS011;9635;52.078;8.648;2022-12-18T15:12:20;15.20;;;7.97;;
19004;SDS011;9635;52.078;8.648;2022-12-18T15:17:29;13.50;;;7.05;;
19004;SDS011;9635;52.078;8.648;2022-12-18T15:22:33;8.90;;;5.47;;
19004;SDS011;9635;52.078;8.648;2022-12-18T15:27:37;14.93;;;7.72;;
19004;SDS011;9635;52.078;8.648;2022-12-18T15:32:45;19.27;;;8.65;;
19004;SDS011;9635;52.078;8.648;2022-12-18T15:37:49;15.20;;;7.20;;
19004;SDS011;9635;52.078;8.648;2022-12-18T15:42:53;15.15;;;7.07;;
19004;SDS011;9635;52.078;8.648;2022-12-18T15:48:20;14.52;;;7.80;;
19004;SDS011;9635;52.078;8.648;2022-12-18T15:53:24;15.25;;;7.60;;
19004;SDS011;9635;52.078;8.648;2022-12-18T15:58:30;19.70;;;9.15;;
19004;SDS011;9635;52.078;8.648;2022-12-18T16:03:35;15.93;;;9.18;;
19004;SDS011;9635;52.078;8.648;2022-12-18T16:08:40;15.07;;;8.00;;
19004;SDS011;9635;52.078;8.648;2022-12-18T16:13:43;14.95;;;7.38;;
19004;SDS011;9635;52.078;8.648;2022-12-18T16:18:47;17.02;;;8.68;;
19004;SDS011;9635;52.078;8.648;2022-12-18T16:23:50;16.38;;;7.53;;
19004;SDS011;9635;52.078;8.648;2022-12-18T16:28:53;16.73;;;9.00;;
19004;SDS011;9635;52.078;8.648;2022-12-18T16:34:10;18.33;;;8.25;;
19004;SDS011;9635;52.078;8.648;2022-12-18T16:39:23;14.07;;;7.45;;
19004;SDS011;9635;52.078;8.648;2022-12-18T16:44:26;19.00;;;8.68;;
19004;SDS011;9635;52.078;8.648;2022-12-18T16:49:31;17.95;;;8.88;;
19004;SDS011;9635;52.078;8.648;2022-12-18T16:54:34;16.80;;;8.38;;
19004;SDS011;9635;52.078;8.648;2022-12-18T16:59:37;22.73;;;9.70;;
19004;SDS011;9635;52.078;8.648;2022-12-18T17:04:42;20.13;;;8.68;;
19004;SDS011;9635;52.078;8.648;2022-12-18T17:09:45;17.25;;;8.25;;
19004;SDS011;9635;52.078;8.648;2022-12-18T17:14:49;14.85;;;8.98;;
19004;SDS011;9635;52.078;8.648;2022-12-18T17:19:54;17.58;;;8.45;;
19004;SDS011;9635;52.078;8.648;2022-12-18T17:24:57;19.95;;;9.68;;
19004;SDS011;9635;52.078;8.648;2022-12-18T17:29:59;16.52;;;9.30;;
19004;SDS011;9635;52.078;8.648;2022-12-18T17:35:04;19.15;;;8.50;;
19004;SDS011;9635;52.078;8.648;2022-12-18T17:40:09;19.55;;;9.77;;
19004;SDS011;9635;52.078;8.648;2022-12-18T17:45:12;21.33;;;10.95;;
19004;SDS011;9635;52.078;8.648;2022-12-18T17:50:16;22.30;;;10.85;;
19004;SDS011;9635;52.078;8.648;2022-12-18T17:55:19;21.70;;;10.77;;
19004;SDS011;9635;52.078;8.648;2022-12-18T18:00:22;20.00;;;10.25;;
19004;SDS011;9635;52.078;8.648;2022-12-18T18:05:27;18.17;;;11.30;;
19004;SDS011;9635;52.078;8.648;2022-12-18T18:10:30;25.63;;;12.50;;
19004;SDS011;9635;52.078;8.648;2022-12-18T18:15:35;21.40;;;11.50;;
19004;SDS011;9635;52.078;8.648;2022-12-18T18:20:42;24.65;;;11.93;;
19004;SDS011;9635;52.078;8.648;2022-12-18T18:25:45;25.63;;;11.57;;
19004;SDS011;9635;52.078;8.648;2022-12-18T18:30:53;24.77;;;11.32;;
19004;SDS011;9635;52.078;8.648;2022-12-18T18:35:58;23.42;;;11.88;;
19004;SDS011;9635;52.078;8.648;2022-12-18T18:41:01;22.60;;;10.80;;
19004;SDS011;9635;52.078;8.648;2022-12-18T18:46:05;19.98;;;9.82;;
19004;SDS011;9635;52.078;8.648;2022-12-18T18:51:11;23.65;;;11.63;;
19004;SDS011;9635;52.078;8.648;2022-12-18T18:56:22;21.58;;;11.07;;
19004;SDS011;9635;52.078;8.648;2022-12-18T19:01:47;31.90;;;12.15;;
19004;SDS011;9635;52.078;8.648;2022-12-18T19:06:52;26.65;;;12.35;;
19004;SDS011;9635;52.078;8.648;2022-12-18T19:11:56;28.48;;;12.30;;
19004;SDS011;9635;52.078;8.648;2022-12-18T19:17:17;30.60;;;14.77;;
19004;SDS011;9635;52.078;8.648;2022-12-18T19:22:24;26.83;;;13.60;;
19004;SDS011;9635;52.078;8.648;2022-12-18T19:27:27;30.02;;;14.55;;
19004;SDS011;9635;52.078;8.648;2022-12-18T19:32:30;33.00;;;14.32;;
19004;SDS011;9635;52.078;8.648;2022-12-18T19:37:34;34.65;;;15.45;;
19004;SDS011;9635;52.078;8.648;2022-12-18T19:42:37;32.17;;;14.50;;
19004;SDS011;9635;52.078;8.648;2022-12-18T19:47:40;29.83;;;14.65;;
19004;SDS011;9635;52.078;8.648;2022-12-18T19:52:44;26.48;;;12.70;;
19004;SDS011;9635;52.078;8.648;2022-12-18T19:57:47;32.40;;;14.52;;
19004;SDS011;9635;52.078;8.648;2022-12-18T20:02:50;33.80;;;14.85;;
19004;SDS011;9635;52.078;8.648;2022-12-18T20:08:00;34.55;;;16.48;;
19004;SDS011;9635;52.078;8.648;2022-12-18T20:13:03;32.58;;;15.15;;
19004;SDS011;9635;52.078;8.648;2022-12-18T20:18:07;31.60;;;16.17;;
19004;SDS011;9635;52.078;8.648;2022-12-18T20:23:12;30.13;;;14.93;;
19004;SDS011;9635;52.078;8.648;2022-12-18T20:28:14;38.67;;;17.40;;
19004;SDS011;9635;52.078;8.648;2022-12-18T20:33:17;34.63;;;16.55;;
19004;SDS011;9635;52.078;8.648;2022-12-18T20:38:21;34.70;;;15.93;;
19004;SDS011;9635;52.078;8.648;2022-12-18T20:43:25;33.13;;;15.05;;
19004;SDS011;9635;52.078;8.648;2022-12-18T20:48:28;37.22;;;16.67;;
19004;SDS011;9635;52.078;8.648;2022-12-18T20:53:33;35.10;;;17.38;;
19004;SDS011;9635;52.078;8.648;2022-12-18T20:58:38;43.55;;;19.98;;
19004;SDS011;9635;52.078;8.648;2022-12-18T21:03:42;38.60;;;18.88;;
19004;SDS011;9635;52.078;8.648;2022-12-18T21:08:47;41.33;;;18.00;;
19004;SDS011;9635;52.078;8.648;2022-12-18T21:13:50;40.05;;;16.83;;
19004;SDS011;9635;52.078;8.648;2022-12-18T21:18:53;36.85;;;16.60;;
19004;SDS011;9635;52.078;8.648;2022-12-18T21:23:58;39.67;;;18.77;;
19004;SDS011;9635;52.078;8.648;2022-12-18T21:29:03;32.85;;;16.52;;
19004;SDS011;9635;52.078;8.648;2022-12-18T21:34:07;38.38;;;16.95;;
19004;SDS011;9635;52.078;8.648;2022-12-18T21:39:13;32.10;;;14.98;;
19004;SDS011;9635;52.078;8.648;2022-12-18T21:44:17;38.35;;;15.10;;
19004;SDS011;9635;52.078;8.648;2022-12-18T21:49:20;22.00;;;9.85;;
19004;SDS011;9635;52.078;8.648;2022-12-18T21:54:26;36.22;;;16.25;;
19004;SDS011;9635;52.078;8.648;2022-12-18T21:59:31;34.85;;;14.77;;
19004;SDS011;9635;52.078;8.648;2022-12-18T22:04:36;37.40;;;17.58;;
19004;SDS011;9635;52.078;8.648;2022-12-18T22:09:41;32.20;;;15.73;;
19004;SDS011;9635;52.078;8.648;2022-12-18T22:14:44;39.17;;;18.27;;
19004;SDS011;9635;52.078;8.648;2022-12-18T22:19:47;35.33;;;16.60;;
19004;SDS011;9635;52.078;8.648;2022-12-18T22:24:52;41.00;;;16.55;;
19004;SDS011;9635;52.078;8.648;2022-12-18T22:29:55;34.97;;;17.25;;
19004;SDS011;9635;52.078;8.648;2022-12-18T22:35:07;45.70;;;17.88;;
19004;SDS011;9635;52.078;8.648;2022-12-18T22:40:18;44.72;;;20.00;;
19004;SDS011;9635;52.078;8.648;2022-12-18T22:45:29;49.33;;;20.38;;
19004;SDS011;9635;52.078;8.648;2022-12-18T22:50:34;42.53;;;17.02;;
19004;SDS011;9635;52.078;8.648;2022-12-18T22:55:38;35.45;;;16.95;;
19004;SDS011;9635;52.078;8.648;2022-12-18T23:00:41;41.78;;;19.50;;
19004;SDS011;9635;52.078;8.648;2022-12-18T23:05:44;41.13;;;15.32;;
19004;SDS011;9635;52.078;8.648;2022-12-18T23:10:51;35.35;;;15.40;;
19004;SDS011;9635;52.078;8.648;2022-12-18T23:15:54;41.30;;;17.65;;
19004;SDS011;9635;52.078;8.648;2022-12-18T23:21:01;40.55;;;16.90;;
19004;SDS011;9635;52.078;8.648;2022-12-18T23:26:08;40.75;;;18.67;;
19004;SDS011;9635;52.078;8.648;2022-12-18T23:31:13;35.03;;;15.88;;
19004;SDS011;9635;52.078;8.648;2022-12-18T23:36:17;37.95;;;15.88;;
19004;SDS011;9635;52.078;8.648;2022-12-18T23:41:23;43.40;;;19.00;;
19004;SDS011;9635;52.078;8.648;2022-12-18T23:46:28;49.75;;;21.55;;
19004;SDS011;9635;52.078;8.648;2022-12-18T23:51:32;45.15;;;17.45;;
19004;SDS011;9635;52.078;8.648;2022-12-18T23:56:41;51.65;;;21.65;;
